ARCK1: Arkansas Riv, ARk City, KS

Data processed at Mon May 21 2018 23:05


All information presented herein is the property of the government of the United States of America and may be revised or deleted at any time without prior notice.
Dissemination of this information without the expressed written consent of the Public Affairs Office, Tulsa District U.S. Army Corps of Engineers is strictly prohibited.
These data are gathered electronically and, as presented, have not undergone any form of quality control. These data are not guaranteed to be valid or correct.
Go to home page.
Go to station list.

Upstream stations:

Downstream station:
Previous Day
Next Day
Current Day
    
SHEF ID:       ARCK1     ARKANSAS R AT ARKANSAS CITY, KS
STATION TYPE:  

               PRECIP     STAGE  RIV-FLOW  BAT-LOAD
                   in        ft       cfs      volt
              Ccp-Rev   Ccp-Rev   Ccp-Rev   Ccp-Rev
(US/Central)
05/19 00:00      0.00      3.73       648     12.25
05/19 01:00      0.74      3.75       662     12.25
05/19 02:00      0.02      3.78       684     12.17
05/19 03:00      0.01      3.79       691     12.17
05/19 04:00      0.01      3.80       699     12.17
05/19 05:00      0.00      3.83       721     12.17
05/19 06:00      0.01      3.82       714     12.09
05/19 07:00      0.00      3.83       721     12.09
05/19 08:00      0.00      3.86       744     12.09
05/19 09:00      0.00      4.11       959     12.09
05/19 10:00      0.00      4.64      1516     12.65
05/19 11:00      0.00      5.33      2432     12.81
05/19 12:00      0.00      5.79      3162     12.73
05/19 13:00      0.00      6.09      3689     12.41
05/19 14:00      0.00      6.29      4023     13.21
05/19 15:00      0.01      6.42      4243     13.05
05/19 16:00      0.00      6.51      4399     12.41
05/19 17:00      0.00      6.54      4451     12.33
05/19 18:00      0.00      6.53      4434     12.33
05/19 19:00      0.00      6.50      4381     12.81
05/19 20:00      0.00      6.44      4277     12.65
05/19 21:00      0.03      6.40      4209     12.25
05/19 22:00      0.02      6.34      4107     12.25
05/19 23:00      0.01      6.28      4006     12.25